sensor_id;sensor_type;location;lat;lon;timestamp;temperature;humidity
63802;DHT22;49949;43.060;25.624;2023-12-28T00:00:06;-0.10;99.90
63802;DHT22;49949;43.060;25.624;2023-12-28T00:02:32;-0.10;99.90
63802;DHT22;49949;43.060;25.624;2023-12-28T00:04:58;-0.10;99.90
63802;DHT22;49949;43.060;25.624;2023-12-28T00:07:24;-0.10;99.90
63802;DHT22;49949;43.060;25.624;2023-12-28T00:09:49;-0.20;99.90
63802;DHT22;49949;43.060;25.624;2023-12-28T00:12:15;-0.20;99.90
63802;DHT22;49949;43.060;25.624;2023-12-28T00:14:41;-0.30;99.90
63802;DHT22;49949;43.060;25.624;2023-12-28T00:17:06;-0.30;99.90
63802;DHT22;49949;43.060;25.624;2023-12-28T00:19:32;-0.30;99.90
63802;DHT22;49949;43.060;25.624;2023-12-28T00:21:58;-0.30;99.90
63802;DHT22;49949;43.060;25.624;2023-12-28T00:24:23;-0.30;99.90
63802;DHT22;49949;43.060;25.624;2023-12-28T00:26:49;-0.30;99.90
63802;DHT22;49949;43.060;25.624;2023-12-28T00:29:15;-0.40;99.90
63802;DHT22;49949;43.060;25.624;2023-12-28T00:31:41;-0.40;99.90
63802;DHT22;49949;43.060;25.624;2023-12-28T00:34:06;-0.40;99.90
63802;DHT22;49949;43.060;25.624;2023-12-28T00:36:32;-0.40;99.90
63802;DHT22;49949;43.060;25.624;2023-12-28T00:38:58;-0.40;99.90
63802;DHT22;49949;43.060;25.624;2023-12-28T00:41:23;-0.50;99.90
63802;DHT22;49949;43.060;25.624;2023-12-28T00:43:49;-0.40;99.90
63802;DHT22;49949;43.060;25.624;2023-12-28T00:46:15;-0.40;99.90
63802;DHT22;49949;43.060;25.624;2023-12-28T00:48:40;-0.50;99.90
63802;DHT22;49949;43.060;25.624;2023-12-28T00:51:06;-0.50;99.90
63802;DHT22;49949;43.060;25.624;2023-12-28T00:53:32;-0.60;99.90
63802;DHT22;49949;43.060;25.624;2023-12-28T00:55:57;-0.60;99.90
63802;DHT22;49949;43.060;25.624;2023-12-28T00:58:23;-0.60;99.90
63802;DHT22;49949;43.060;25.624;2023-12-28T01:00:49;-0.60;99.90
63802;DHT22;49949;43.060;25.624;2023-12-28T01:03:14;-0.70;99.90
63802;DHT22;49949;43.060;25.624;2023-12-28T01:05:40;-0.70;99.90
63802;DHT22;49949;43.060;25.624;2023-12-28T01:08:06;-0.60;99.90
63802;DHT22;49949;43.060;25.624;2023-12-28T01:10:32;-0.70;99.90
63802;DHT22;49949;43.060;25.624;2023-12-28T01:12:57;-0.60;99.90
63802;DHT22;49949;43.060;25.624;2023-12-28T01:15:23;-0.70;99.90
63802;DHT22;49949;43.060;25.624;2023-12-28T01:17:49;-0.70;99.90
63802;DHT22;49949;43.060;25.624;2023-12-28T01:20:14;-0.70;99.90
63802;DHT22;49949;43.060;25.624;2023-12-28T01:22:40;-0.70;99.90
63802;DHT22;49949;43.060;25.624;2023-12-28T01:25:06;-0.80;99.90
63802;DHT22;49949;43.060;25.624;2023-12-28T01:27:33;-0.70;99.90
63802;DHT22;49949;43.060;25.624;2023-12-28T01:29:58;-0.80;99.90
63802;DHT22;49949;43.060;25.624;2023-12-28T01:32:24;-0.80;99.90
63802;DHT22;49949;43.060;25.624;2023-12-28T01:34:50;-0.90;99.90
63802;DHT22;49949;43.060;25.624;2023-12-28T01:37:15;-0.80;99.90
63802;DHT22;49949;43.060;25.624;2023-12-28T01:39:41;-0.80;99.90
63802;DHT22;49949;43.060;25.624;2023-12-28T01:42:07;-0.90;99.90
63802;DHT22;49949;43.060;25.624;2023-12-28T01:44:33;-0.90;99.90
63802;DHT22;49949;43.060;25.624;2023-12-28T01:46:59;-0.90;99.90
63802;DHT22;49949;43.060;25.624;2023-12-28T01:49:25;-1.00;99.90
63802;DHT22;49949;43.060;25.624;2023-12-28T01:51:51;-1.00;99.90
63802;DHT22;49949;43.060;25.624;2023-12-28T01:54:17;-0.90;99.90
63802;DHT22;49949;43.060;25.624;2023-12-28T01:56:44;-0.90;99.90
63802;DHT22;49949;43.060;25.624;2023-12-28T01:59:11;-1.00;99.90
63802;DHT22;49949;43.060;25.624;2023-12-28T02:01:36;-1.00;99.90
63802;DHT22;49949;43.060;25.624;2023-12-28T02:04:02;-1.00;99.90
63802;DHT22;49949;43.060;25.624;2023-12-28T02:06:28;-1.00;99.90
63802;DHT22;49949;43.060;25.624;2023-12-28T02:08:54;-1.00;99.90
63802;DHT22;49949;43.060;25.624;2023-12-28T02:11:20;-0.90;99.90
63802;DHT22;49949;43.060;25.624;2023-12-28T02:13:46;-1.00;99.90
63802;DHT22;49949;43.060;25.624;2023-12-28T02:16:26;-1.00;99.90
63802;DHT22;49949;43.060;25.624;2023-12-28T02:18:57;-1.00;99.90
63802;DHT22;49949;43.060;25.624;2023-12-28T02:21:25;-1.10;99.90
63802;DHT22;49949;43.060;25.624;2023-12-28T02:23:51;-1.10;99.90
63802;DHT22;49949;43.060;25.624;2023-12-28T02:26:17;-1.10;99.90
63802;DHT22;49949;43.060;25.624;2023-12-28T02:28:44;-1.10;99.90
63802;DHT22;49949;43.060;25.624;2023-12-28T02:31:17;-1.20;99.90
63802;DHT22;49949;43.060;25.624;2023-12-28T02:36:49;-1.20;99.90
63802;DHT22;49949;43.060;25.624;2023-12-28T02:39:16;-1.30;99.90
63802;DHT22;49949;43.060;25.624;2023-12-28T02:41:44;-1.30;99.90
63802;DHT22;49949;43.060;25.624;2023-12-28T02:44:10;-1.30;99.90
63802;DHT22;49949;43.060;25.624;2023-12-28T02:46:36;-1.30;99.90
63802;DHT22;49949;43.060;25.624;2023-12-28T02:49:02;-1.30;99.90
63802;DHT22;49949;43.060;25.624;2023-12-28T02:51:27;-1.30;99.90
63802;DHT22;49949;43.060;25.624;2023-12-28T02:53:53;-1.20;99.90
63802;DHT22;49949;43.060;25.624;2023-12-28T02:56:19;-1.20;99.90
63802;DHT22;49949;43.060;25.624;2023-12-28T02:58:44;-1.20;99.90
63802;DHT22;49949;43.060;25.624;2023-12-28T03:01:10;-1.30;99.90
63802;DHT22;49949;43.060;25.624;2023-12-28T03:03:36;-1.30;99.90
63802;DHT22;49949;43.060;25.624;2023-12-28T03:06:02;-1.30;99.90
63802;DHT22;49949;43.060;25.624;2023-12-28T03:08:27;-1.30;99.90
63802;DHT22;49949;43.060;25.624;2023-12-28T03:10:53;-1.30;99.90
63802;DHT22;49949;43.060;25.624;2023-12-28T03:13:20;-1.40;99.90
63802;DHT22;49949;43.060;25.624;2023-12-28T03:15:46;-1.40;99.90
63802;DHT22;49949;43.060;25.624;2023-12-28T03:18:12;-1.40;99.90
63802;DHT22;49949;43.060;25.624;2023-12-28T03:20:37;-1.40;99.90
63802;DHT22;49949;43.060;25.624;2023-12-28T03:23:03;-1.40;99.90
63802;DHT22;49949;43.060;25.624;2023-12-28T03:25:29;-1.30;99.90
63802;DHT22;49949;43.060;25.624;2023-12-28T03:27:55;-1.30;99.90
63802;DHT22;49949;43.060;25.624;2023-12-28T03:30:21;-1.30;99.90
63802;DHT22;49949;43.060;25.624;2023-12-28T03:32:46;-1.40;99.90
63802;DHT22;49949;43.060;25.624;2023-12-28T03:35:12;-1.50;99.90
63802;DHT22;49949;43.060;25.624;2023-12-28T03:37:38;-1.50;99.90
63802;DHT22;49949;43.060;25.624;2023-12-28T03:40:04;-1.50;99.90
63802;DHT22;49949;43.060;25.624;2023-12-28T03:42:30;-1.50;99.90
63802;DHT22;49949;43.060;25.624;2023-12-28T03:44:56;-1.50;99.90
63802;DHT22;49949;43.060;25.624;2023-12-28T03:47:22;-1.40;99.90
63802;DHT22;49949;43.060;25.624;2023-12-28T03:49:49;-1.40;99.90
63802;DHT22;49949;43.060;25.624;2023-12-28T03:52:15;-1.40;99.90
63802;DHT22;49949;43.060;25.624;2023-12-28T03:54:41;-1.50;99.90
63802;DHT22;49949;43.060;25.624;2023-12-28T03:57:06;-1.50;99.90
63802;DHT22;49949;43.060;25.624;2023-12-28T03:59:32;-1.50;99.90
63802;DHT22;49949;43.060;25.624;2023-12-28T04:01:58;-1.50;99.90
63802;DHT22;49949;43.060;25.624;2023-12-28T04:04:23;-1.50;99.90
63802;DHT22;49949;43.060;25.624;2023-12-28T04:06:49;-1.60;99.90
63802;DHT22;49949;43.060;25.624;2023-12-28T04:09:15;-1.60;99.90
63802;DHT22;49949;43.060;25.624;2023-12-28T04:11:40;-1.50;99.90
63802;DHT22;49949;43.060;25.624;2023-12-28T04:14:06;-1.50;99.90
63802;DHT22;49949;43.060;25.624;2023-12-28T04:16:32;-1.60;99.90
63802;DHT22;49949;43.060;25.624;2023-12-28T04:18:57;-1.70;99.90
63802;DHT22;49949;43.060;25.624;2023-12-28T04:21:23;-1.60;99.90
63802;DHT22;49949;43.060;25.624;2023-12-28T04:23:49;-1.60;99.90
63802;DHT22;49949;43.060;25.624;2023-12-28T04:26:18;-1.50;99.90
63802;DHT22;49949;43.060;25.624;2023-12-28T04:28:44;-1.50;99.90
63802;DHT22;49949;43.060;25.624;2023-12-28T04:31:09;-1.60;99.90
63802;DHT22;49949;43.060;25.624;2023-12-28T04:33:35;-1.50;99.90
63802;DHT22;49949;43.060;25.624;2023-12-28T04:36:02;-1.50;99.90
63802;DHT22;49949;43.060;25.624;2023-12-28T04:38:33;-1.60;99.90
63802;DHT22;49949;43.060;25.624;2023-12-28T04:41:00;-1.80;99.90
63802;DHT22;49949;43.060;25.624;2023-12-28T04:43:26;-1.70;99.90
63802;DHT22;49949;43.060;25.624;2023-12-28T04:45:52;-1.70;99.90
63802;DHT22;49949;43.060;25.624;2023-12-28T04:48:18;-1.70;99.90
63802;DHT22;49949;43.060;25.624;2023-12-28T04:50:49;-1.80;99.90
63802;DHT22;49949;43.060;25.624;2023-12-28T04:53:15;-1.90;99.90
63802;DHT22;49949;43.060;25.624;2023-12-28T04:55:41;-1.90;99.90
63802;DHT22;49949;43.060;25.624;2023-12-28T04:58:06;-1.80;99.90
63802;DHT22;49949;43.060;25.624;2023-12-28T05:00:32;-1.80;99.90
63802;DHT22;49949;43.060;25.624;2023-12-28T05:02:58;-1.90;99.90
63802;DHT22;49949;43.060;25.624;2023-12-28T05:05:23;-1.90;99.90
63802;DHT22;49949;43.060;25.624;2023-12-28T05:07:49;-1.90;99.90
63802;DHT22;49949;43.060;25.624;2023-12-28T05:10:15;-1.90;99.90
63802;DHT22;49949;43.060;25.624;2023-12-28T05:12:40;-1.90;99.90
63802;DHT22;49949;43.060;25.624;2023-12-28T05:15:06;-1.90;99.90
63802;DHT22;49949;43.060;25.624;2023-12-28T05:17:32;-1.90;99.90
63802;DHT22;49949;43.060;25.624;2023-12-28T05:19:58;-1.80;99.90
63802;DHT22;49949;43.060;25.624;2023-12-28T05:22:24;-1.90;99.90
63802;DHT22;49949;43.060;25.624;2023-12-28T05:24:49;-2.00;99.90
63802;DHT22;49949;43.060;25.624;2023-12-28T05:27:15;-2.00;99.90
63802;DHT22;49949;43.060;25.624;2023-12-28T05:29:41;-2.10;99.90
63802;DHT22;49949;43.060;25.624;2023-12-28T05:32:07;-2.00;99.90
63802;DHT22;49949;43.060;25.624;2023-12-28T05:34:32;-2.10;99.90
63802;DHT22;49949;43.060;25.624;2023-12-28T05:36:58;-2.00;99.90
63802;DHT22;49949;43.060;25.624;2023-12-28T05:39:23;-2.00;99.90
63802;DHT22;49949;43.060;25.624;2023-12-28T05:41:49;-2.10;99.90
63802;DHT22;49949;43.060;25.624;2023-12-28T05:44:16;-2.10;99.90
63802;DHT22;49949;43.060;25.624;2023-12-28T05:46:42;-2.10;99.90
63802;DHT22;49949;43.060;25.624;2023-12-28T05:49:08;-2.10;99.90
63802;DHT22;49949;43.060;25.624;2023-12-28T05:51:40;-2.00;99.90
63802;DHT22;49949;43.060;25.624;2023-12-28T05:54:07;-2.00;99.90
63802;DHT22;49949;43.060;25.624;2023-12-28T05:56:32;-1.90;99.90
63802;DHT22;49949;43.060;25.624;2023-12-28T05:58:58;-1.90;99.90
63802;DHT22;49949;43.060;25.624;2023-12-28T06:01:24;-1.90;99.90
63802;DHT22;49949;43.060;25.624;2023-12-28T06:03:50;-1.80;99.90
63802;DHT22;49949;43.060;25.624;2023-12-28T06:06:18;-1.80;99.90
63802;DHT22;49949;43.060;25.624;2023-12-28T06:08:44;-1.80;99.90
63802;DHT22;49949;43.060;25.624;2023-12-28T06:11:10;-1.70;99.90
63802;DHT22;49949;43.060;25.624;2023-12-28T06:13:35;-1.60;99.90
63802;DHT22;49949;43.060;25.624;2023-12-28T06:16:01;-1.70;99.90
63802;DHT22;49949;43.060;25.624;2023-12-28T06:18:27;-1.70;99.90
63802;DHT22;49949;43.060;25.624;2023-12-28T06:20:52;-1.70;99.90
63802;DHT22;49949;43.060;25.624;2023-12-28T06:23:18;-1.70;99.90
63802;DHT22;49949;43.060;25.624;2023-12-28T06:25:44;-1.70;99.90
63802;DHT22;49949;43.060;25.624;2023-12-28T06:28:09;-1.70;99.90
63802;DHT22;49949;43.060;25.624;2023-12-28T06:30:35;-1.60;99.90
63802;DHT22;49949;43.060;25.624;2023-12-28T06:33:01;-1.70;99.90
63802;DHT22;49949;43.060;25.624;2023-12-28T06:35:26;-1.80;99.90
63802;DHT22;49949;43.060;25.624;2023-12-28T06:37:52;-1.70;99.90
63802;DHT22;49949;43.060;25.624;2023-12-28T06:40:18;-1.70;99.90
63802;DHT22;49949;43.060;25.624;2023-12-28T06:42:43;-1.60;99.90
63802;DHT22;49949;43.060;25.624;2023-12-28T06:45:10;-1.60;99.90
63802;DHT22;49949;43.060;25.624;2023-12-28T06:47:36;-1.60;99.90
63802;DHT22;49949;43.060;25.624;2023-12-28T06:50:01;-1.50;99.90
63802;DHT22;49949;43.060;25.624;2023-12-28T06:52:27;-1.50;99.90
63802;DHT22;49949;43.060;25.624;2023-12-28T06:54:54;-1.40;99.90
63802;DHT22;49949;43.060;25.624;2023-12-28T06:57:20;-1.40;99.90
63802;DHT22;49949;43.060;25.624;2023-12-28T06:59:45;-1.40;99.90
63802;DHT22;49949;43.060;25.624;2023-12-28T07:02:11;-1.30;99.90
63802;DHT22;49949;43.060;25.624;2023-12-28T07:04:37;-1.30;99.90
63802;DHT22;49949;43.060;25.624;2023-12-28T07:07:03;-1.20;99.90
63802;DHT22;49949;43.060;25.624;2023-12-28T07:09:29;-1.10;99.90
63802;DHT22;49949;43.060;25.624;2023-12-28T07:11:55;-1.10;99.90
63802;DHT22;49949;43.060;25.624;2023-12-28T07:14:20;-1.00;99.90
63802;DHT22;49949;43.060;25.624;2023-12-28T07:16:46;-1.00;99.90
63802;DHT22;49949;43.060;25.624;2023-12-28T07:19:12;-1.00;99.90
63802;DHT22;49949;43.060;25.624;2023-12-28T07:21:37;-0.90;99.90
63802;DHT22;49949;43.060;25.624;2023-12-28T07:24:03;-0.80;99.90
63802;DHT22;49949;43.060;25.624;2023-12-28T07:26:29;-0.70;99.90
63802;DHT22;49949;43.060;25.624;2023-12-28T07:28:55;-0.70;99.90
63802;DHT22;49949;43.060;25.624;2023-12-28T07:31:24;-0.60;99.90
63802;DHT22;49949;43.060;25.624;2023-12-28T07:33:50;-0.50;99.90
63802;DHT22;49949;43.060;25.624;2023-12-28T07:36:16;-0.40;99.90
63802;DHT22;49949;43.060;25.624;2023-12-28T07:38:41;-0.40;99.90
63802;DHT22;49949;43.060;25.624;2023-12-28T07:41:07;-0.40;99.90
63802;DHT22;49949;43.060;25.624;2023-12-28T07:43:33;-0.30;99.90
63802;DHT22;49949;43.060;25.624;2023-12-28T07:45:59;-0.20;99.90
63802;DHT22;49949;43.060;25.624;2023-12-28T07:48:24;-0.10;99.90
63802;DHT22;49949;43.060;25.624;2023-12-28T07:50:50;0.00;99.90
63802;DHT22;49949;43.060;25.624;2023-12-28T07:53:17;0.10;99.90
63802;DHT22;49949;43.060;25.624;2023-12-28T07:55:42;0.20;99.90
63802;DHT22;49949;43.060;25.624;2023-12-28T07:58:08;0.40;99.90
63802;DHT22;49949;43.060;25.624;2023-12-28T08:00:34;0.40;99.90
63802;DHT22;49949;43.060;25.624;2023-12-28T08:02:59;0.50;99.90
63802;DHT22;49949;43.060;25.624;2023-12-28T08:05:25;0.60;99.90
63802;DHT22;49949;43.060;25.624;2023-12-28T08:07:51;0.70;99.90
63802;DHT22;49949;43.060;25.624;2023-12-28T08:10:16;0.70;99.90
63802;DHT22;49949;43.060;25.624;2023-12-28T08:12:42;0.80;99.90
63802;DHT22;49949;43.060;25.624;2023-12-28T08:15:08;1.00;99.90
63802;DHT22;49949;43.060;25.624;2023-12-28T08:17:34;1.10;99.90
63802;DHT22;49949;43.060;25.624;2023-12-28T08:20:00;1.10;99.90
63802;DHT22;49949;43.060;25.624;2023-12-28T08:22:25;1.20;99.90
63802;DHT22;49949;43.060;25.624;2023-12-28T08:24:53;1.30;99.90
63802;DHT22;49949;43.060;25.624;2023-12-28T08:27:19;1.50;99.90
63802;DHT22;49949;43.060;25.624;2023-12-28T08:29:44;1.60;99.90
63802;DHT22;49949;43.060;25.624;2023-12-28T08:32:11;1.70;99.90
63802;DHT22;49949;43.060;25.624;2023-12-28T08:34:37;1.80;99.90
63802;DHT22;49949;43.060;25.624;2023-12-28T08:37:03;2.00;99.90
63802;DHT22;49949;43.060;25.624;2023-12-28T08:39:29;2.20;99.90
63802;DHT22;49949;43.060;25.624;2023-12-28T08:41:55;2.30;99.90
63802;DHT22;49949;43.060;25.624;2023-12-28T08:44:21;2.40;99.90
63802;DHT22;49949;43.060;25.624;2023-12-28T08:46:47;2.50;99.90
63802;DHT22;49949;43.060;25.624;2023-12-28T08:49:12;2.60;99.90
63802;DHT22;49949;43.060;25.624;2023-12-28T08:51:41;2.80;99.90
63802;DHT22;49949;43.060;25.624;2023-12-28T08:54:07;3.00;99.90
63802;DHT22;49949;43.060;25.624;2023-12-28T08:56:33;3.20;99.90
63802;DHT22;49949;43.060;25.624;2023-12-28T08:58:59;3.40;99.90
63802;DHT22;49949;43.060;25.624;2023-12-28T09:01:25;3.60;99.90
63802;DHT22;49949;43.060;25.624;2023-12-28T09:03:51;3.80;99.90
63802;DHT22;49949;43.060;25.624;2023-12-28T09:06:18;4.00;99.90
63802;DHT22;49949;43.060;25.624;2023-12-28T09:08:45;4.20;99.90
63802;DHT22;49949;43.060;25.624;2023-12-28T09:11:13;4.50;99.90
63802;DHT22;49949;43.060;25.624;2023-12-28T09:13:39;4.80;99.90
63802;DHT22;49949;43.060;25.624;2023-12-28T09:16:06;5.40;99.90
63802;DHT22;49949;43.060;25.624;2023-12-28T09:18:33;5.90;99.90
63802;DHT22;49949;43.060;25.624;2023-12-28T09:20:59;6.70;99.90
63802;DHT22;49949;43.060;25.624;2023-12-28T09:23:24;8.40;99.90
63802;DHT22;49949;43.060;25.624;2023-12-28T09:25:50;9.80;99.90
63802;DHT22;49949;43.060;25.624;2023-12-28T09:28:16;10.70;99.90
63802;DHT22;49949;43.060;25.624;2023-12-28T09:30:41;11.50;99.90
63802;DHT22;49949;43.060;25.624;2023-12-28T09:33:07;12.10;99.90
63802;DHT22;49949;43.060;25.624;2023-12-28T09:35:33;12.80;99.90
63802;DHT22;49949;43.060;25.624;2023-12-28T09:37:59;13.20;99.90
63802;DHT22;49949;43.060;25.624;2023-12-28T09:40:25;13.70;99.90
63802;DHT22;49949;43.060;25.624;2023-12-28T09:45:41;14.30;99.90
63802;DHT22;49949;43.060;25.624;2023-12-28T09:48:07;14.00;99.90
63802;DHT22;49949;43.060;25.624;2023-12-28T09:50:33;12.70;99.90
63802;DHT22;49949;43.060;25.624;2023-12-28T09:52:59;11.60;99.90
63802;DHT22;49949;43.060;25.624;2023-12-28T09:55:24;10.80;99.90
63802;DHT22;49949;43.060;25.624;2023-12-28T09:57:51;10.40;99.90
63802;DHT22;49949;43.060;25.624;2023-12-28T10:00:17;10.10;99.90
63802;DHT22;49949;43.060;25.624;2023-12-28T10:02:44;9.90;99.90
63802;DHT22;49949;43.060;25.624;2023-12-28T10:05:16;9.80;99.90
63802;DHT22;49949;43.060;25.624;2023-12-28T10:07:43;9.60;99.90
63802;DHT22;49949;43.060;25.624;2023-12-28T10:10:09;9.60;99.90
63802;DHT22;49949;43.060;25.624;2023-12-28T10:12:36;9.40;99.90
63802;DHT22;49949;43.060;25.624;2023-12-28T10:15:02;9.40;99.90
63802;DHT22;49949;43.060;25.624;2023-12-28T10:17:27;9.40;99.90
63802;DHT22;49949;43.060;25.624;2023-12-28T10:19:53;9.30;99.90
63802;DHT22;49949;43.060;25.624;2023-12-28T10:22:21;9.30;99.90
63802;DHT22;49949;43.060;25.624;2023-12-28T10:24:47;9.30;99.90
63802;DHT22;49949;43.060;25.624;2023-12-28T10:27:15;9.40;99.90
63802;DHT22;49949;43.060;25.624;2023-12-28T10:29:42;9.40;99.90
63802;DHT22;49949;43.060;25.624;2023-12-28T10:32:08;9.40;99.90
63802;DHT22;49949;43.060;25.624;2023-12-28T10:34:33;9.50;99.90
63802;DHT22;49949;43.060;25.624;2023-12-28T10:36:59;9.50;99.90
63802;DHT22;49949;43.060;25.624;2023-12-28T10:39:29;9.50;99.90
63802;DHT22;49949;43.060;25.624;2023-12-28T10:41:59;9.60;99.90
63802;DHT22;49949;43.060;25.624;2023-12-28T10:44:28;9.60;99.90
63802;DHT22;49949;43.060;25.624;2023-12-28T10:47:01;9.70;99.90
63802;DHT22;49949;43.060;25.624;2023-12-28T10:49:30;9.80;99.90
63802;DHT22;49949;43.060;25.624;2023-12-28T10:51:59;9.90;99.90
63802;DHT22;49949;43.060;25.624;2023-12-28T10:54:47;10.00;99.90
63802;DHT22;49949;43.060;25.624;2023-12-28T10:57:29;10.10;99.90
63802;DHT22;49949;43.060;25.624;2023-12-28T11:00:09;10.20;99.90
63802;DHT22;49949;43.060;25.624;2023-12-28T11:02:48;10.30;99.90
63802;DHT22;49949;43.060;25.624;2023-12-28T11:05:18;10.50;99.90
63802;DHT22;49949;43.060;25.624;2023-12-28T11:07:45;10.50;99.90
63802;DHT22;49949;43.060;25.624;2023-12-28T11:10:13;10.60;99.90
63802;DHT22;49949;43.060;25.624;2023-12-28T11:12:39;10.70;99.90
63802;DHT22;49949;43.060;25.624;2023-12-28T11:15:07;10.70;99.90
63802;DHT22;49949;43.060;25.624;2023-12-28T11:17:35;10.70;99.90
63802;DHT22;49949;43.060;25.624;2023-12-28T11:20:03;10.80;99.90
63802;DHT22;49949;43.060;25.624;2023-12-28T11:22:31;10.90;99.90
63802;DHT22;49949;43.060;25.624;2023-12-28T11:24:56;11.10;99.90
63802;DHT22;49949;43.060;25.624;2023-12-28T11:27:22;11.10;99.90
63802;DHT22;49949;43.060;25.624;2023-12-28T11:29:49;11.20;99.90
63802;DHT22;49949;43.060;25.624;2023-12-28T11:32:17;11.40;99.90
63802;DHT22;49949;43.060;25.624;2023-12-28T11:34:44;11.40;99.90
63802;DHT22;49949;43.060;25.624;2023-12-28T11:37:16;11.50;99.90
63802;DHT22;49949;43.060;25.624;2023-12-28T11:39:44;11.60;99.90
63802;DHT22;49949;43.060;25.624;2023-12-28T11:42:10;11.70;99.90
63802;DHT22;49949;43.060;25.624;2023-12-28T11:44:43;11.90;99.90
63802;DHT22;49949;43.060;25.624;2023-12-28T11:47:22;11.90;99.90
63802;DHT22;49949;43.060;25.624;2023-12-28T11:49:49;12.00;99.90
63802;DHT22;49949;43.060;25.624;2023-12-28T11:52:25;12.10;99.90
63802;DHT22;49949;43.060;25.624;2023-12-28T11:54:51;12.20;99.90
63802;DHT22;49949;43.060;25.624;2023-12-28T11:57:17;12.40;99.90
63802;DHT22;49949;43.060;25.624;2023-12-28T11:59:43;12.40;99.90
63802;DHT22;49949;43.060;25.624;2023-12-28T12:02:10;12.50;99.90
63802;DHT22;49949;43.060;25.624;2023-12-28T12:04:36;12.60;99.90
63802;DHT22;49949;43.060;25.624;2023-12-28T12:07:03;12.60;99.90
63802;DHT22;49949;43.060;25.624;2023-12-28T12:09:31;12.70;99.90
63802;DHT22;49949;43.060;25.624;2023-12-28T12:12:01;12.70;99.90
63802;DHT22;49949;43.060;25.624;2023-12-28T12:14:27;12.60;99.90
63802;DHT22;49949;43.060;25.624;2023-12-28T12:16:54;12.60;99.90
63802;DHT22;49949;43.060;25.624;2023-12-28T12:19:24;12.60;99.90
63802;DHT22;49949;43.060;25.624;2023-12-28T12:21:52;12.70;99.90
63802;DHT22;49949;43.060;25.624;2023-12-28T12:24:18;12.80;99.90
63802;DHT22;49949;43.060;25.624;2023-12-28T12:26:46;12.80;99.90
63802;DHT22;49949;43.060;25.624;2023-12-28T12:29:12;13.00;99.90
63802;DHT22;49949;43.060;25.624;2023-12-28T12:31:39;13.00;99.90
63802;DHT22;49949;43.060;25.624;2023-12-28T12:34:08;13.00;99.90
63802;DHT22;49949;43.060;25.624;2023-12-28T12:36:34;13.00;99.90
63802;DHT22;49949;43.060;25.624;2023-12-28T12:39:00;13.00;99.90
63802;DHT22;49949;43.060;25.624;2023-12-28T12:41:26;13.00;99.90
63802;DHT22;49949;43.060;25.624;2023-12-28T12:43:52;13.00;99.90
63802;DHT22;49949;43.060;25.624;2023-12-28T12:46:21;12.90;99.90
63802;DHT22;49949;43.060;25.624;2023-12-28T12:48:57;12.80;99.90
63802;DHT22;49949;43.060;25.624;2023-12-28T12:51:23;12.80;99.90
63802;DHT22;49949;43.060;25.624;2023-12-28T12:53:50;12.70;99.90
63802;DHT22;49949;43.060;25.624;2023-12-28T12:56:16;12.60;99.90
63802;DHT22;49949;43.060;25.624;2023-12-28T12:58:43;12.50;99.90
63802;DHT22;49949;43.060;25.624;2023-12-28T13:01:12;12.40;99.90
63802;DHT22;49949;43.060;25.624;2023-12-28T13:03:38;12.30;99.90
63802;DHT22;49949;43.060;25.624;2023-12-28T13:06:04;12.10;99.90
63802;DHT22;49949;43.060;25.624;2023-12-28T13:08:30;12.00;99.90
63802;DHT22;49949;43.060;25.624;2023-12-28T13:10:56;12.00;99.90
63802;DHT22;49949;43.060;25.624;2023-12-28T13:13:21;11.90;99.90
63802;DHT22;49949;43.060;25.624;2023-12-28T13:15:47;11.90;99.90
63802;DHT22;49949;43.060;25.624;2023-12-28T13:18:13;11.80;99.90
63802;DHT22;49949;43.060;25.624;2023-12-28T13:20:38;11.90;99.90
63802;DHT22;49949;43.060;25.624;2023-12-28T13:23:04;12.00;99.90
63802;DHT22;49949;43.060;25.624;2023-12-28T13:25:30;11.90;99.90
63802;DHT22;49949;43.060;25.624;2023-12-28T13:27:56;11.80;99.90
63802;DHT22;49949;43.060;25.624;2023-12-28T13:30:22;11.80;99.90
63802;DHT22;49949;43.060;25.624;2023-12-28T13:32:48;11.80;99.90
63802;DHT22;49949;43.060;25.624;2023-12-28T13:35:14;11.70;99.90
63802;DHT22;49949;43.060;25.624;2023-12-28T13:37:39;11.60;99.90
63802;DHT22;49949;43.060;25.624;2023-12-28T13:40:06;11.40;99.90
63802;DHT22;49949;43.060;25.624;2023-12-28T13:42:32;11.10;99.90
63802;DHT22;49949;43.060;25.624;2023-12-28T13:44:58;10.90;99.90
63802;DHT22;49949;43.060;25.624;2023-12-28T13:47:24;10.80;99.90
63802;DHT22;49949;43.060;25.624;2023-12-28T13:49:49;10.60;99.90
63802;DHT22;49949;43.060;25.624;2023-12-28T13:52:15;10.50;99.90
63802;DHT22;49949;43.060;25.624;2023-12-28T13:54:41;10.30;99.90
63802;DHT22;49949;43.060;25.624;2023-12-28T13:57:07;10.10;99.90
63802;DHT22;49949;43.060;25.624;2023-12-28T13:59:32;9.80;99.90
63802;DHT22;49949;43.060;25.624;2023-12-28T14:01:58;9.70;99.90
63802;DHT22;49949;43.060;25.624;2023-12-28T14:04:24;9.50;99.90
63802;DHT22;49949;43.060;25.624;2023-12-28T14:06:50;9.30;99.90
63802;DHT22;49949;43.060;25.624;2023-12-28T14:09:16;9.10;99.90
63802;DHT22;49949;43.060;25.624;2023-12-28T14:11:46;8.80;99.90
63802;DHT22;49949;43.060;25.624;2023-12-28T14:14:12;8.70;99.90
63802;DHT22;49949;43.060;25.624;2023-12-28T14:16:38;8.70;99.90
63802;DHT22;49949;43.060;25.624;2023-12-28T14:19:04;8.70;99.90
63802;DHT22;49949;43.060;25.624;2023-12-28T14:21:37;8.60;99.90
63802;DHT22;49949;43.060;25.624;2023-12-28T14:24:04;8.50;99.90
63802;DHT22;49949;43.060;25.624;2023-12-28T14:26:32;8.50;99.90
63802;DHT22;49949;43.060;25.624;2023-12-28T14:29:01;8.40;99.90
63802;DHT22;49949;43.060;25.624;2023-12-28T14:31:31;8.20;99.90
63802;DHT22;49949;43.060;25.624;2023-12-28T14:33:56;8.10;99.90
63802;DHT22;49949;43.060;25.624;2023-12-28T14:36:41;8.00;99.90
63802;DHT22;49949;43.060;25.624;2023-12-28T14:39:11;7.90;99.90
63802;DHT22;49949;43.060;25.624;2023-12-28T14:41:37;7.80;99.90
63802;DHT22;49949;43.060;25.624;2023-12-28T14:44:04;7.70;99.90
63802;DHT22;49949;43.060;25.624;2023-12-28T14:46:30;7.60;99.90
63802;DHT22;49949;43.060;25.624;2023-12-28T14:48:56;7.50;99.90
63802;DHT22;49949;43.060;25.624;2023-12-28T14:51:22;7.40;99.90
63802;DHT22;49949;43.060;25.624;2023-12-28T14:53:48;7.30;99.90
63802;DHT22;49949;43.060;25.624;2023-12-28T14:56:14;7.10;99.90
63802;DHT22;49949;43.060;25.624;2023-12-28T14:58:41;7.00;99.90
63802;DHT22;49949;43.060;25.624;2023-12-28T15:01:13;7.00;99.90
63802;DHT22;49949;43.060;25.624;2023-12-28T15:03:39;7.00;99.90
63802;DHT22;49949;43.060;25.624;2023-12-28T15:06:05;6.90;99.90
63802;DHT22;49949;43.060;25.624;2023-12-28T15:08:31;6.80;99.90
63802;DHT22;49949;43.060;25.624;2023-12-28T15:10:57;6.70;99.90
63802;DHT22;49949;43.060;25.624;2023-12-28T15:13:23;6.60;99.90
63802;DHT22;49949;43.060;25.624;2023-12-28T15:15:50;6.50;99.90
63802;DHT22;49949;43.060;25.624;2023-12-28T15:18:17;6.30;99.90
63802;DHT22;49949;43.060;25.624;2023-12-28T15:20:44;6.30;99.90